Terminal Aerodrome Forecast
Issued by NWS

Home | Current Version | Previous Version | Graphics & Text | Print | Product List | Glossary On
Versions: 1 2 3 4 5 6 7 8 9 10 11 12 13 14
473
FTUS43 KGRB 190520
TAFAUW
TAF
KAUW 190520Z 1906/2006 32003KT P6SM SCT200
     FM191100 VRB03KT 6SM BR SCT150
     FM191500 13003KT P6SM SCT200
     FM200200 11006KT 5SM BR SCT080=

USA.gov is the U.S. government's official web portal to all federal, state and local government web resources and services.